sensor_id;sensor_type;location;lat;lon;timestamp;pressure;altitude;pressure_sealevel;temperature;humidity
68075;BME280;54864;52.002;5.468;2023-07-31T00:00:28;100785.88;;;17.50;94.69
68075;BME280;54864;52.002;5.468;2023-07-31T00:01:47;100793.22;;;17.59;94.73
68075;BME280;54864;52.002;5.468;2023-07-31T00:03:08;100789.47;;;17.61;94.54
68075;BME280;54864;52.002;5.468;2023-07-31T00:04:09;100791.06;;;17.64;94.68
68075;BME280;54864;52.002;5.468;2023-07-31T00:05:29;100787.50;;;17.76;95.34
68075;BME280;54864;52.002;5.468;2023-07-31T00:06:48;100784.59;;;17.79;95.44
68075;BME280;54864;52.002;5.468;2023-07-31T00:08:09;100779.88;;;17.83;95.17
68075;BME280;54864;52.002;5.468;2023-07-31T00:09:10;100781.69;;;17.82;95.05
68075;BME280;54864;52.002;5.468;2023-07-31T00:10:31;100789.34;;;17.63;95.04
68075;BME280;54864;52.002;5.468;2023-07-31T00:11:51;100777.97;;;17.61;95.75
68075;BME280;54864;52.002;5.468;2023-07-31T00:12:54;100786.69;;;17.63;96.64
68075;BME280;54864;52.002;5.468;2023-07-31T00:13:58;100784.88;;;17.63;96.46
68075;BME280;54864;52.002;5.468;2023-07-31T00:14:59;100785.03;;;17.49;97.61
68075;BME280;54864;52.002;5.468;2023-07-31T00:16:19;100773.13;;;17.66;97.56
68075;BME280;54864;52.002;5.468;2023-07-31T00:17:21;100779.34;;;17.66;97.97
68075;BME280;54864;52.002;5.468;2023-07-31T00:18:40;100772.06;;;17.68;98.32
68075;BME280;54864;52.002;5.468;2023-07-31T00:20:01;100769.53;;;17.67;98.98
68075;BME280;54864;52.002;5.468;2023-07-31T00:21:02;100765.44;;;17.74;99.02
68075;BME280;54864;52.002;5.468;2023-07-31T00:22:22;100767.00;;;17.77;99.15
68075;BME280;54864;52.002;5.468;2023-07-31T00:23:23;100760.72;;;17.78;100.00
68075;BME280;54864;52.002;5.468;2023-07-31T00:24:43;100768.34;;;17.82;100.00
68075;BME280;54864;52.002;5.468;2023-07-31T00:26:02;100761.13;;;17.95;99.81
68075;BME280;54864;52.002;5.468;2023-07-31T00:27:16;100756.25;;;17.89;100.00
68075;BME280;54864;52.002;5.468;2023-07-31T00:28:22;100754.66;;;17.87;100.00
68075;BME280;54864;52.002;5.468;2023-07-31T00:29:24;100761.94;;;17.85;100.00
68075;BME280;54864;52.002;5.468;2023-07-31T00:30:43;100759.66;;;17.91;100.00
68075;BME280;54864;52.002;5.468;2023-07-31T00:32:04;100758.56;;;17.94;100.00
68075;BME280;54864;52.002;5.468;2023-07-31T00:33:05;100757.84;;;17.92;100.00
68075;BME280;54864;52.002;5.468;2023-07-31T00:34:26;100757.72;;;18.04;100.00
68075;BME280;54864;52.002;5.468;2023-07-31T00:35:35;100767.06;;;18.10;100.00
68075;BME280;54864;52.002;5.468;2023-07-31T00:36:56;100761.75;;;18.10;100.00
68075;BME280;54864;52.002;5.468;2023-07-31T00:37:57;100759.84;;;18.23;100.00
68075;BME280;54864;52.002;5.468;2023-07-31T00:39:18;100756.94;;;18.26;100.00
68075;BME280;54864;52.002;5.468;2023-07-31T00:40:19;100761.78;;;18.32;100.00
68075;BME280;54864;52.002;5.468;2023-07-31T00:41:39;100756.69;;;18.29;100.00
68075;BME280;54864;52.002;5.468;2023-07-31T00:42:46;100765.31;;;18.33;100.00
68075;BME280;54864;52.002;5.468;2023-07-31T00:43:59;100764.22;;;18.35;100.00
68075;BME280;54864;52.002;5.468;2023-07-31T00:45:18;100766.88;;;18.35;100.00
68075;BME280;54864;52.002;5.468;2023-07-31T00:46:21;100760.22;;;18.41;100.00
68075;BME280;54864;52.002;5.468;2023-07-31T00:47:25;100754.41;;;18.36;100.00
68075;BME280;54864;52.002;5.468;2023-07-31T00:48:28;100756.34;;;18.34;100.00
68075;BME280;54864;52.002;5.468;2023-07-31T00:49:48;100751.84;;;18.46;100.00
68075;BME280;54864;52.002;5.468;2023-07-31T00:51:08;100759.72;;;18.47;100.00
68075;BME280;54864;52.002;5.468;2023-07-31T00:52:12;100756.34;;;18.45;100.00
68075;BME280;54864;52.002;5.468;2023-07-31T00:53:32;100754.88;;;18.41;100.00
68075;BME280;54864;52.002;5.468;2023-07-31T00:54:52;100758.53;;;18.40;100.00
68075;BME280;54864;52.002;5.468;2023-07-31T00:56:12;100754.50;;;18.46;100.00
68075;BME280;54864;52.002;5.468;2023-07-31T00:57:13;100758.03;;;18.46;100.00
68075;BME280;54864;52.002;5.468;2023-07-31T00:58:33;100754.88;;;18.30;100.00
68075;BME280;54864;52.002;5.468;2023-07-31T00:59:54;100751.97;;;18.44;100.00
68075;BME280;54864;52.002;5.468;2023-07-31T01:00:56;100756.44;;;18.32;100.00
68075;BME280;54864;52.002;5.468;2023-07-31T01:02:03;100755.72;;;18.42;100.00
68075;BME280;54864;52.002;5.468;2023-07-31T01:03:05;100752.31;;;18.40;100.00
68075;BME280;54864;52.002;5.468;2023-07-31T01:04:25;100757.44;;;18.43;100.00
68075;BME280;54864;52.002;5.468;2023-07-31T01:05:33;100751.25;;;18.42;100.00
68075;BME280;54864;52.002;5.468;2023-07-31T01:06:55;100742.75;;;18.37;100.00
68075;BME280;54864;52.002;5.468;2023-07-31T01:08:24;100751.13;;;18.44;100.00
68075;BME280;54864;52.002;5.468;2023-07-31T01:09:54;100751.00;;;18.34;100.00
68075;BME280;54864;52.002;5.468;2023-07-31T01:11:04;100753.31;;;18.38;100.00
68075;BME280;54864;52.002;5.468;2023-07-31T01:12:14;100749.41;;;18.43;100.00
68075;BME280;54864;52.002;5.468;2023-07-31T01:13:17;100752.44;;;18.49;100.00
68075;BME280;54864;52.002;5.468;2023-07-31T01:14:18;100755.13;;;18.49;100.00
68075;BME280;54864;52.002;5.468;2023-07-31T01:15:21;100747.59;;;18.43;100.00
68075;BME280;54864;52.002;5.468;2023-07-31T01:16:41;100748.94;;;18.37;100.00
68075;BME280;54864;52.002;5.468;2023-07-31T01:17:43;100745.41;;;18.37;100.00
68075;BME280;54864;52.002;5.468;2023-07-31T01:19:03;100749.16;;;18.34;100.00
68075;BME280;54864;52.002;5.468;2023-07-31T01:20:26;100744.94;;;18.43;100.00
68075;BME280;54864;52.002;5.468;2023-07-31T01:21:41;100739.34;;;18.46;100.00
68075;BME280;54864;52.002;5.468;2023-07-31T01:23:17;100742.63;;;18.50;100.00
68075;BME280;54864;52.002;5.468;2023-07-31T01:24:54;100736.56;;;18.36;100.00
68075;BME280;54864;52.002;5.468;2023-07-31T01:26:03;100732.44;;;18.32;100.00
68075;BME280;54864;52.002;5.468;2023-07-31T01:27:26;100743.84;;;18.23;100.00
68075;BME280;54864;52.002;5.468;2023-07-31T01:28:38;100733.16;;;18.23;100.00
68075;BME280;54864;52.002;5.468;2023-07-31T01:30:03;100740.06;;;18.37;100.00
68075;BME280;54864;52.002;5.468;2023-07-31T01:31:30;100734.97;;;18.45;100.00
68075;BME280;54864;52.002;5.468;2023-07-31T01:32:32;100742.97;;;18.45;100.00
68075;BME280;54864;52.002;5.468;2023-07-31T01:33:37;100732.56;;;18.42;100.00
68075;BME280;54864;52.002;5.468;2023-07-31T01:34:45;100735.09;;;18.44;100.00
68075;BME280;54864;52.002;5.468;2023-07-31T01:35:48;100740.56;;;18.53;100.00
68075;BME280;54864;52.002;5.468;2023-07-31T01:36:49;100735.81;;;18.57;100.00
68075;BME280;54864;52.002;5.468;2023-07-31T01:37:52;100741.16;;;18.57;100.00
68075;BME280;54864;52.002;5.468;2023-07-31T01:38:58;100745.53;;;18.35;100.00
68075;BME280;54864;52.002;5.468;2023-07-31T01:40:00;100735.59;;;18.37;100.00
68075;BME280;54864;52.002;5.468;2023-07-31T01:41:03;100735.09;;;18.44;100.00
68075;BME280;54864;52.002;5.468;2023-07-31T01:42:05;100739.56;;;18.54;100.00
68075;BME280;54864;52.002;5.468;2023-07-31T01:43:06;100735.22;;;18.53;100.00
68075;BME280;54864;52.002;5.468;2023-07-31T01:44:07;100739.34;;;18.57;100.00
68075;BME280;54864;52.002;5.468;2023-07-31T01:45:09;100739.94;;;18.61;100.00
68075;BME280;54864;52.002;5.468;2023-07-31T01:46:11;100740.81;;;18.61;100.00
68075;BME280;54864;52.002;5.468;2023-07-31T01:47:12;100746.16;;;18.61;100.00
68075;BME280;54864;52.002;5.468;2023-07-31T01:48:13;100745.66;;;18.56;100.00
68075;BME280;54864;52.002;5.468;2023-07-31T01:49:14;100747.00;;;18.62;100.00
68075;BME280;54864;52.002;5.468;2023-07-31T01:50:16;100738.25;;;18.49;100.00
68075;BME280;54864;52.002;5.468;2023-07-31T01:51:23;100739.09;;;18.49;100.00
68075;BME280;54864;52.002;5.468;2023-07-31T01:52:37;100735.81;;;18.46;100.00
68075;BME280;54864;52.002;5.468;2023-07-31T01:53:39;100744.69;;;18.46;100.00
68075;BME280;54864;52.002;5.468;2023-07-31T01:54:43;100743.97;;;18.44;100.00
68075;BME280;54864;52.002;5.468;2023-07-31T01:56:04;100739.34;;;18.35;100.00
68075;BME280;54864;52.002;5.468;2023-07-31T01:57:06;100736.69;;;18.35;100.00
68075;BME280;54864;52.002;5.468;2023-07-31T01:58:25;100737.28;;;18.27;100.00
68075;BME280;54864;52.002;5.468;2023-07-31T01:59:27;100738.09;;;18.17;100.00
68075;BME280;54864;52.002;5.468;2023-07-31T02:00:31;100733.47;;;18.08;100.00
68075;BME280;54864;52.002;5.468;2023-07-31T02:01:52;100736.16;;;18.19;100.00
68075;BME280;54864;52.002;5.468;2023-07-31T02:03:06;100745.97;;;18.18;100.00
68075;BME280;54864;52.002;5.468;2023-07-31T02:04:27;100746.81;;;18.08;100.00
68075;BME280;54864;52.002;5.468;2023-07-31T02:05:28;100745.00;;;17.97;100.00
68075;BME280;54864;52.002;5.468;2023-07-31T02:06:29;100733.56;;;17.84;100.00
68075;BME280;54864;52.002;5.468;2023-07-31T02:07:49;100734.53;;;17.83;100.00
68075;BME280;54864;52.002;5.468;2023-07-31T02:08:50;100736.59;;;17.90;100.00
68075;BME280;54864;52.002;5.468;2023-07-31T02:10:10;100723.75;;;17.84;100.00
68075;BME280;54864;52.002;5.468;2023-07-31T02:11:28;100726.28;;;17.86;100.00
68075;BME280;54864;52.002;5.468;2023-07-31T02:12:48;100724.13;;;17.91;100.00
68075;BME280;54864;52.002;5.468;2023-07-31T02:13:55;100720.13;;;18.08;100.00
68075;BME280;54864;52.002;5.468;2023-07-31T02:15:16;100727.41;;;17.94;100.00
68075;BME280;54864;52.002;5.468;2023-07-31T02:16:17;100724.13;;;17.91;100.00
68075;BME280;54864;52.002;5.468;2023-07-31T02:17:37;100727.19;;;18.09;100.00
68075;BME280;54864;52.002;5.468;2023-07-31T02:18:41;100729.97;;;18.18;100.00
68075;BME280;54864;52.002;5.468;2023-07-31T02:19:43;100707.44;;;18.22;100.00
68075;BME280;54864;52.002;5.468;2023-07-31T02:20:49;100721.38;;;18.26;100.00
68075;BME280;54864;52.002;5.468;2023-07-31T02:21:51;100717.50;;;18.30;100.00
68075;BME280;54864;52.002;5.468;2023-07-31T02:22:51;100709.75;;;18.27;100.00
68075;BME280;54864;52.002;5.468;2023-07-31T02:23:53;100719.56;;;18.26;100.00
68075;BME280;54864;52.002;5.468;2023-07-31T02:24:54;100714.84;;;18.30;100.00
68075;BME280;54864;52.002;5.468;2023-07-31T02:25:56;100709.13;;;18.34;100.00
68075;BME280;54864;52.002;5.468;2023-07-31T02:26:58;100705.50;;;18.24;100.00
68075;BME280;54864;52.002;5.468;2023-07-31T02:28:06;100704.03;;;18.31;100.00
68075;BME280;54864;52.002;5.468;2023-07-31T02:29:07;100706.47;;;18.34;100.00
68075;BME280;54864;52.002;5.468;2023-07-31T02:30:11;100704.03;;;18.43;100.00
68075;BME280;54864;52.002;5.468;2023-07-31T02:31:31;100701.72;;;18.38;100.00
68075;BME280;54864;52.002;5.468;2023-07-31T02:32:51;100693.34;;;18.43;100.00
68075;BME280;54864;52.002;5.468;2023-07-31T02:33:53;100696.13;;;18.52;100.00
68075;BME280;54864;52.002;5.468;2023-07-31T02:35:12;100698.06;;;18.50;100.00
68075;BME280;54864;52.002;5.468;2023-07-31T02:36:25;100697.09;;;18.51;100.00
68075;BME280;54864;52.002;5.468;2023-07-31T02:37:44;100695.06;;;18.44;100.00
68075;BME280;54864;52.002;5.468;2023-07-31T02:38:49;100698.56;;;18.44;100.00
68075;BME280;54864;52.002;5.468;2023-07-31T02:40:05;100690.94;;;18.40;100.00
68075;BME280;54864;52.002;5.468;2023-07-31T02:41:07;100688.00;;;18.43;100.00
68075;BME280;54864;52.002;5.468;2023-07-31T02:42:14;100692.50;;;18.42;100.00
68075;BME280;54864;52.002;5.468;2023-07-31T02:43:15;100686.78;;;18.47;100.00
68075;BME280;54864;52.002;5.468;2023-07-31T02:44:16;100689.22;;;18.50;100.00
68075;BME280;54864;52.002;5.468;2023-07-31T02:45:18;100687.16;;;18.53;100.00
68075;BME280;54864;52.002;5.468;2023-07-31T02:46:38;100700.38;;;18.66;99.81
68075;BME280;54864;52.002;5.468;2023-07-31T02:47:58;100688.84;;;18.65;99.47
68075;BME280;54864;52.002;5.468;2023-07-31T02:48:59;100696.72;;;18.56;99.57
68075;BME280;54864;52.002;5.468;2023-07-31T02:50:19;100694.69;;;18.48;99.78
68075;BME280;54864;52.002;5.468;2023-07-31T02:51:20;100680.38;;;18.38;100.00
68075;BME280;54864;52.002;5.468;2023-07-31T02:52:22;100698.44;;;18.46;100.00
68075;BME280;54864;52.002;5.468;2023-07-31T02:53:22;100690.56;;;18.33;100.00
68075;BME280;54864;52.002;5.468;2023-07-31T02:54:23;100688.16;;;18.30;100.00
68075;BME280;54864;52.002;5.468;2023-07-31T02:55:28;100684.63;;;18.29;100.00
68075;BME280;54864;52.002;5.468;2023-07-31T02:56:47;100690.94;;;18.40;100.00
68075;BME280;54864;52.002;5.468;2023-07-31T02:57:53;100687.91;;;18.33;100.00
68075;BME280;54864;52.002;5.468;2023-07-31T02:59:12;100682.06;;;18.39;100.00
68075;BME280;54864;52.002;5.468;2023-07-31T03:00:14;100695.44;;;18.28;100.00
68075;BME280;54864;52.002;5.468;2023-07-31T03:01:26;100680.03;;;18.31;100.00
68075;BME280;54864;52.002;5.468;2023-07-31T03:02:36;100681.25;;;18.27;100.00
68075;BME280;54864;52.002;5.468;2023-07-31T03:03:56;100680.50;;;18.36;100.00
68075;BME280;54864;52.002;5.468;2023-07-31T03:05:16;100679.41;;;18.39;100.00
68075;BME280;54864;52.002;5.468;2023-07-31T03:06:18;100683.53;;;18.43;99.63
68075;BME280;54864;52.002;5.468;2023-07-31T03:07:37;100684.03;;;18.37;99.98
68075;BME280;54864;52.002;5.468;2023-07-31T03:08:46;100691.53;;;18.43;99.30
68075;BME280;54864;52.002;5.468;2023-07-31T03:09:47;100685.72;;;18.38;99.33
68075;BME280;54864;52.002;5.468;2023-07-31T03:11:07;100680.75;;;18.33;99.37
68075;BME280;54864;52.002;5.468;2023-07-31T03:12:11;100690.69;;;18.31;100.00
68075;BME280;54864;52.002;5.468;2023-07-31T03:13:32;100683.91;;;18.38;100.00
68075;BME280;54864;52.002;5.468;2023-07-31T03:14:51;100683.75;;;18.51;99.64
68075;BME280;54864;52.002;5.468;2023-07-31T03:15:59;100688.50;;;18.48;99.10
68075;BME280;54864;52.002;5.468;2023-07-31T03:17:18;100682.81;;;18.41;98.95
68075;BME280;54864;52.002;5.468;2023-07-31T03:18:20;100683.41;;;18.33;98.44
68075;BME280;54864;52.002;5.468;2023-07-31T03:19:33;100689.72;;;18.21;98.84
68075;BME280;54864;52.002;5.468;2023-07-31T03:20:54;100687.06;;;18.32;99.26
68075;BME280;54864;52.002;5.468;2023-07-31T03:22:13;100683.19;;;18.25;100.00
68075;BME280;54864;52.002;5.468;2023-07-31T03:23:21;100685.09;;;18.12;98.78
68075;BME280;54864;52.002;5.468;2023-07-31T03:24:21;100681.44;;;18.13;98.97
68075;BME280;54864;52.002;5.468;2023-07-31T03:25:55;100672.13;;;18.08;99.46
68075;BME280;54864;52.002;5.468;2023-07-31T03:27:12;100674.06;;;18.05;98.74
68075;BME280;54864;52.002;5.468;2023-07-31T03:28:16;100677.56;;;18.17;98.45
68075;BME280;54864;52.002;5.468;2023-07-31T03:29:19;100676.13;;;18.24;97.98
68075;BME280;54864;52.002;5.468;2023-07-31T03:30:36;100675.28;;;18.24;98.07
68075;BME280;54864;52.002;5.468;2023-07-31T03:31:56;100672.75;;;18.22;98.89
68075;BME280;54864;52.002;5.468;2023-07-31T03:32:59;100678.06;;;18.11;98.61
68075;BME280;54864;52.002;5.468;2023-07-31T03:34:18;100673.72;;;18.21;98.63
68075;BME280;54864;52.002;5.468;2023-07-31T03:35:23;100671.28;;;18.29;97.81
68075;BME280;54864;52.002;5.468;2023-07-31T03:36:26;100675.91;;;18.27;97.92
68075;BME280;54864;52.002;5.468;2023-07-31T03:37:46;100674.69;;;18.31;97.92
68075;BME280;54864;52.002;5.468;2023-07-31T03:38:56;100664.50;;;18.25;98.03
68075;BME280;54864;52.002;5.468;2023-07-31T03:40:17;100665.19;;;18.16;96.39
68075;BME280;54864;52.002;5.468;2023-07-31T03:41:18;100664.22;;;18.17;97.21
68075;BME280;54864;52.002;5.468;2023-07-31T03:42:20;100675.16;;;18.14;98.02
68075;BME280;54864;52.002;5.468;2023-07-31T03:43:20;100667.03;;;18.16;97.87
68075;BME280;54864;52.002;5.468;2023-07-31T03:44:42;100668.84;;;18.04;97.10
68075;BME280;54864;52.002;5.468;2023-07-31T03:45:43;100669.19;;;18.11;97.84
68075;BME280;54864;52.002;5.468;2023-07-31T03:47:04;100666.66;;;18.20;97.33
68075;BME280;54864;52.002;5.468;2023-07-31T03:48:05;100672.34;;;18.16;96.65
68075;BME280;54864;52.002;5.468;2023-07-31T03:49:20;100668.34;;;18.10;97.73
68075;BME280;54864;52.002;5.468;2023-07-31T03:50:39;100668.97;;;18.14;97.58
68075;BME280;54864;52.002;5.468;2023-07-31T03:51:41;100674.06;;;18.17;98.03
68075;BME280;54864;52.002;5.468;2023-07-31T03:52:54;100667.13;;;18.14;97.92
68075;BME280;54864;52.002;5.468;2023-07-31T03:54:14;100664.00;;;18.09;96.59
68075;BME280;54864;52.002;5.468;2023-07-31T03:55:33;100666.66;;;18.09;97.26
68075;BME280;54864;52.002;5.468;2023-07-31T03:56:54;100672.59;;;18.13;97.77
68075;BME280;54864;52.002;5.468;2023-07-31T03:57:55;100653.56;;;17.95;96.58
68075;BME280;54864;52.002;5.468;2023-07-31T03:59:15;100666.78;;;17.96;96.79
68075;BME280;54864;52.002;5.468;2023-07-31T04:00:17;100662.78;;;18.02;97.70
68075;BME280;54864;52.002;5.468;2023-07-31T04:01:19;100666.66;;;17.98;97.83
68075;BME280;54864;52.002;5.468;2023-07-31T04:02:20;100666.28;;;17.91;97.64
68075;BME280;54864;52.002;5.468;2023-07-31T04:03:22;100661.44;;;17.85;96.84
68075;BME280;54864;52.002;5.468;2023-07-31T04:04:25;100655.97;;;17.76;97.18
68075;BME280;54864;52.002;5.468;2023-07-31T04:05:39;100661.19;;;17.88;97.53
68075;BME280;54864;52.002;5.468;2023-07-31T04:06:46;100664.22;;;17.84;96.65
68075;BME280;54864;52.002;5.468;2023-07-31T04:07:48;100660.72;;;17.83;96.57
68075;BME280;54864;52.002;5.468;2023-07-31T04:08:48;100659.25;;;17.90;97.87
68075;BME280;54864;52.002;5.468;2023-07-31T04:09:52;100658.03;;;17.94;97.93
68075;BME280;54864;52.002;5.468;2023-07-31T04:10:58;100657.81;;;17.97;97.95
68075;BME280;54864;52.002;5.468;2023-07-31T04:11:59;100662.28;;;18.08;97.46
68075;BME280;54864;52.002;5.468;2023-07-31T04:13:01;100657.06;;;18.06;96.71
68075;BME280;54864;52.002;5.468;2023-07-31T04:14:04;100648.72;;;18.11;96.10
68075;BME280;54864;52.002;5.468;2023-07-31T04:15:06;100653.44;;;18.19;96.64
68075;BME280;54864;52.002;5.468;2023-07-31T04:16:09;100650.75;;;18.19;95.63
68075;BME280;54864;52.002;5.468;2023-07-31T04:17:10;100646.41;;;18.18;94.93
68075;BME280;54864;52.002;5.468;2023-07-31T04:18:11;100643.25;;;18.13;95.76
68075;BME280;54864;52.002;5.468;2023-07-31T04:19:13;100641.31;;;18.03;95.12
68075;BME280;54864;52.002;5.468;2023-07-31T04:20:17;100640.94;;;18.08;95.55
68075;BME280;54864;52.002;5.468;2023-07-31T04:21:17;100638.88;;;18.12;95.92
68075;BME280;54864;52.002;5.468;2023-07-31T04:22:19;100638.03;;;18.11;95.16
68075;BME280;54864;52.002;5.468;2023-07-31T04:23:20;100633.19;;;18.05;95.18
68075;BME280;54864;52.002;5.468;2023-07-31T04:24:22;100631.97;;;18.09;95.26
68075;BME280;54864;52.002;5.468;2023-07-31T04:25:24;100637.56;;;18.06;94.21
68075;BME280;54864;52.002;5.468;2023-07-31T04:26:25;100633.53;;;18.12;94.35
68075;BME280;54864;52.002;5.468;2023-07-31T04:27:27;100639.13;;;18.20;93.94
68075;BME280;54864;52.002;5.468;2023-07-31T04:28:46;100633.69;;;18.21;94.40
68075;BME280;54864;52.002;5.468;2023-07-31T04:29:50;100630.16;;;18.32;94.58
68075;BME280;54864;52.002;5.468;2023-07-31T04:31:01;100631.84;;;18.33;94.17
68075;BME280;54864;52.002;5.468;2023-07-31T04:32:22;100633.06;;;18.29;92.63
68075;BME280;54864;52.002;5.468;2023-07-31T04:33:23;100631.84;;;18.33;92.86
68075;BME280;54864;52.002;5.468;2023-07-31T04:34:37;100629.66;;;18.38;93.38
68075;BME280;54864;52.002;5.468;2023-07-31T04:35:50;100622.13;;;18.43;94.17
68075;BME280;54864;52.002;5.468;2023-07-31T04:37:11;100631.09;;;18.42;92.93
68075;BME280;54864;52.002;5.468;2023-07-31T04:38:12;100640.47;;;18.36;92.09
68075;BME280;54864;52.002;5.468;2023-07-31T04:39:20;100635.50;;;18.32;92.37
68075;BME280;54864;52.002;5.468;2023-07-31T04:40:21;100633.19;;;18.27;92.17
68075;BME280;54864;52.002;5.468;2023-07-31T04:41:26;100635.50;;;18.21;92.01
68075;BME280;54864;52.002;5.468;2023-07-31T04:42:45;100635.13;;;18.14;92.29
68075;BME280;54864;52.002;5.468;2023-07-31T04:44:05;100635.00;;;18.04;92.79
68075;BME280;54864;52.002;5.468;2023-07-31T04:45:07;100633.91;;;18.07;92.99
68075;BME280;54864;52.002;5.468;2023-07-31T04:46:09;100636.34;;;18.10;92.01
68075;BME280;54864;52.002;5.468;2023-07-31T04:47:29;100633.91;;;18.18;93.63
68075;BME280;54864;52.002;5.468;2023-07-31T04:48:50;100625.66;;;18.32;93.61
68075;BME280;54864;52.002;5.468;2023-07-31T04:49:50;100623.94;;;18.20;93.86
68075;BME280;54864;52.002;5.468;2023-07-31T04:51:11;100633.19;;;18.16;93.89
68075;BME280;54864;52.002;5.468;2023-07-31T04:52:12;100629.44;;;18.30;93.22
68075;BME280;54864;52.002;5.468;2023-07-31T04:53:32;100626.53;;;18.22;93.36
68075;BME280;54864;52.002;5.468;2023-07-31T04:54:46;100627.84;;;18.16;94.03
68075;BME280;54864;52.002;5.468;2023-07-31T04:56:03;100626.63;;;18.09;95.19
68075;BME280;54864;52.002;5.468;2023-07-31T04:57:22;100619.97;;;18.26;94.22
68075;BME280;54864;52.002;5.468;2023-07-31T04:58:24;100608.91;;;18.19;94.50
68075;BME280;54864;52.002;5.468;2023-07-31T04:59:25;100619.50;;;18.21;93.81
68075;BME280;54864;52.002;5.468;2023-07-31T05:00:27;100617.91;;;18.29;93.47
68075;BME280;54864;52.002;5.468;2023-07-31T05:01:47;100614.13;;;18.32;93.99
68075;BME280;54864;52.002;5.468;2023-07-31T05:02:59;100617.78;;;18.20;93.26
68075;BME280;54864;52.002;5.468;2023-07-31T05:04:08;100611.25;;;18.01;94.42
68075;BME280;54864;52.002;5.468;2023-07-31T05:05:28;100610.97;;;18.16;93.94
68075;BME280;54864;52.002;5.468;2023-07-31T05:06:29;100602.38;;;18.12;94.06
68075;BME280;54864;52.002;5.468;2023-07-31T05:07:49;100594.50;;;17.99;93.39
68075;BME280;54864;52.002;5.468;2023-07-31T05:08:53;100607.34;;;18.05;94.31
68075;BME280;54864;52.002;5.468;2023-07-31T05:10:13;100608.09;;;17.85;95.27
68075;BME280;54864;52.002;5.468;2023-07-31T05:11:15;100597.19;;;17.88;96.23
68075;BME280;54864;52.002;5.468;2023-07-31T05:12:36;100613.66;;;17.93;96.11
68075;BME280;54864;52.002;5.468;2023-07-31T05:13:42;100610.75;;;17.96;96.64
68075;BME280;54864;52.002;5.468;2023-07-31T05:14:47;100601.06;;;17.95;96.43
68075;BME280;54864;52.002;5.468;2023-07-31T05:16:06;100604.69;;;17.94;97.33
68075;BME280;54864;52.002;5.468;2023-07-31T05:17:08;100596.56;;;17.85;97.31
68075;BME280;54864;52.002;5.468;2023-07-31T05:18:28;100605.53;;;17.95;97.32
68075;BME280;54864;52.002;5.468;2023-07-31T05:19:30;100611.25;;;18.01;97.22
68075;BME280;54864;52.002;5.468;2023-07-31T05:20:31;100604.69;;;18.05;96.88
68075;BME280;54864;52.002;5.468;2023-07-31T05:21:32;100606.63;;;17.92;96.94
68075;BME280;54864;52.002;5.468;2023-07-31T05:22:33;100604.34;;;17.99;97.85
68075;BME280;54864;52.002;5.468;2023-07-31T05:23:35;100607.47;;;17.93;97.90
68075;BME280;54864;52.002;5.468;2023-07-31T05:24:41;100613.53;;;17.95;97.60
68075;BME280;54864;52.002;5.468;2023-07-31T05:25:43;100609.91;;;17.96;98.72
68075;BME280;54864;52.002;5.468;2023-07-31T05:26:47;100605.06;;;17.90;99.19
68075;BME280;54864;52.002;5.468;2023-07-31T05:27:49;100605.53;;;17.95;99.26
68075;BME280;54864;52.002;5.468;2023-07-31T05:28:49;100600.34;;;17.82;98.70
68075;BME280;54864;52.002;5.468;2023-07-31T05:29:51;100606.50;;;17.71;100.00
68075;BME280;54864;52.002;5.468;2023-07-31T05:30:58;100608.56;;;17.68;100.00
68075;BME280;54864;52.002;5.468;2023-07-31T05:32:00;100607.50;;;17.70;100.00
68075;BME280;54864;52.002;5.468;2023-07-31T05:33:01;100601.59;;;17.54;100.00
68075;BME280;54864;52.002;5.468;2023-07-31T05:34:07;100607.09;;;17.64;100.00
68075;BME280;54864;52.002;5.468;2023-07-31T05:35:08;100606.75;;;17.80;100.00
68075;BME280;54864;52.002;5.468;2023-07-31T05:36:10;100600.81;;;17.76;100.00
68075;BME280;54864;52.002;5.468;2023-07-31T05:37:11;100603.13;;;17.81;100.00
68075;BME280;54864;52.002;5.468;2023-07-31T05:38:12;100605.31;;;17.87;100.00
68075;BME280;54864;52.002;5.468;2023-07-31T05:39:16;100603.97;;;17.92;100.00
68075;BME280;54864;52.002;5.468;2023-07-31T05:40:20;100593.66;;;17.88;100.00
68075;BME280;54864;52.002;5.468;2023-07-31T05:41:21;100599.97;;;17.87;100.00
68075;BME280;54864;52.002;5.468;2023-07-31T05:42:22;100600.09;;;17.85;100.00
68075;BME280;54864;52.002;5.468;2023-07-31T05:43:23;100595.72;;;17.84;100.00
68075;BME280;54864;52.002;5.468;2023-07-31T05:44:25;100590.63;;;17.92;100.00
68075;BME280;54864;52.002;5.468;2023-07-31T05:45:26;100596.31;;;17.99;100.00
68075;BME280;54864;52.002;5.468;2023-07-31T05:46:28;100584.47;;;17.81;100.00
68075;BME280;54864;52.002;5.468;2023-07-31T05:47:29;100588.81;;;17.82;100.00
68075;BME280;54864;52.002;5.468;2023-07-31T05:48:41;100589.75;;;17.58;100.00
68075;BME280;54864;52.002;5.468;2023-07-31T05:49:43;100585.56;;;17.67;100.00
68075;BME280;54864;52.002;5.468;2023-07-31T05:50:45;100582.88;;;17.78;100.00
68075;BME280;54864;52.002;5.468;2023-07-31T05:51:46;100580.22;;;17.78;100.00
68075;BME280;54864;52.002;5.468;2023-07-31T05:52:48;100589.63;;;17.60;100.00
68075;BME280;54864;52.002;5.468;2023-07-31T05:53:49;100572.94;;;17.69;100.00
68075;BME280;54864;52.002;5.468;2023-07-31T05:54:51;100581.31;;;17.76;100.00
68075;BME280;54864;52.002;5.468;2023-07-31T05:55:52;100580.53;;;17.62;100.00
68075;BME280;54864;52.002;5.468;2023-07-31T05:56:53;100574.22;;;17.52;100.00
68075;BME280;54864;52.002;5.468;2023-07-31T05:57:54;100573.03;;;17.56;100.00
68075;BME280;54864;52.002;5.468;2023-07-31T05:58:56;100562.50;;;17.66;100.00